Time;durP1;ratioP1;P1;durP2;ratioP2;P2;SDS_P1;SDS_P2;PMS_P1;PMS_P2;Temp;Humidity;BMP_temperature;BMP_pressure;BME280_temperature;BME280_humidity;BME280_pressure;Samples;Min_cycle;Max_cycle;Signal;HPM_P1;HPM_P2
2023/02/02 00:07:01;;;;;;;5.75;2.42;;;8.00;99.90;;;;;;20618989;28;20066;-43
2023/02/02 00:17:03;;;;;;;4.78;1.65;;;7.90;99.90;;;;;;20630536;28;20176;-43
2023/02/02 00:27:04;;;;;;;9.32;1.45;;;7.90;99.90;;;;;;20647818;28;20084;-43
2023/02/02 00:37:05;;;;;;;5.68;1.50;;;8.00;99.90;;;;;;20644065;28;20675;-43
2023/02/02 00:47:06;;;;;;;2.25;0.77;;;7.90;99.90;;;;;;20637184;28;20069;-43
2023/02/02 00:57:13;;;;;;;1.35;0.32;;;7.70;99.90;;;;;;20630586;28;20078;-43
2023/02/02 01:07:14;;;;;;;4.20;1.98;;;7.40;99.90;;;;;;20636539;28;20129;-43
2023/02/02 01:17:15;;;;;;;1.70;0.50;;;7.30;99.90;;;;;;20628284;28;20044;-43
2023/02/02 01:27:17;;;;;;;2.70;0.93;;;7.10;99.90;;;;;;20642243;28;20073;-43
2023/02/02 01:37:18;;;;;;;1.95;0.75;;;7.00;99.90;;;;;;20628967;28;20185;-42
2023/02/02 01:47:23;;;;;;;4.22;1.00;;;7.20;99.90;;;;;;20637370;28;20147;-42
2023/02/02 01:57:29;;;;;;;7.43;1.75;;;7.10;99.90;;;;;;20630471;28;20533;-42
2023/02/02 02:07:31;;;;;;;5.78;2.10;;;7.20;99.90;;;;;;20628143;28;20119;-43
2023/02/02 02:17:49;;;;;;;3.53;1.50;;;7.40;99.90;;;;;;20631546;28;20506;-42
2023/02/02 02:28:12;;;;;;;6.47;2.55;;;7.50;99.90;;;;;;20614430;28;21633;-42
2023/02/02 02:38:50;;;;;;;5.85;2.28;;;7.70;99.90;;;;;;20616522;28;20443;-42
2023/02/02 02:48:52;;;;;;;5.70;2.03;;;7.70;99.90;;;;;;20620257;28;20290;-42
2023/02/02 02:59:09;;;;;;;7.22;2.85;;;7.70;99.90;;;;;;20623272;28;20125;-43
2023/02/02 03:09:17;;;;;;;6.70;3.13;;;7.70;99.90;;;;;;20629112;28;20358;-43
2023/02/02 03:19:18;;;;;;;;;;;7.80;99.90;;;;;;20620042;28;20133;-43
2023/02/02 03:29:19;;;;;;;5.00;2.20;;;7.90;99.90;;;;;;20629250;28;20024;-43
2023/02/02 03:39:19;;;;;;;7.75;3.25;;;8.00;99.90;;;;;;20633905;28;21619;-43
2023/02/02 03:49:21;;;;;;;12.02;2.85;;;8.00;99.90;;;;;;20635307;28;20198;-43
2023/02/02 03:59:22;;;;;;;9.63;2.40;;;8.10;99.90;;;;;;20644490;28;20129;-43
2023/02/02 04:09:24;;;;;;;4.90;1.38;;;8.10;99.90;;;;;;20633182;28;20128;-43
2023/02/02 04:19:25;;;;;;;7.25;2.53;;;8.20;99.90;;;;;;20640092;28;20141;-44
2023/02/02 04:29:26;;;;;;;10.35;2.95;;;8.10;99.90;;;;;;20649147;28;20471;-43
2023/02/02 04:39:27;;;;;;;10.10;1.88;;;8.20;99.90;;;;;;20644487;28;20490;-43
2023/02/02 04:49:28;;;;;;;5.15;2.28;;;8.20;99.90;;;;;;20642578;28;20417;-43
2023/02/02 04:59:29;;;;;;;3.97;1.77;;;8.20;99.90;;;;;;20640129;28;20066;-43
2023/02/02 05:09:30;;;;;;;6.40;1.63;;;8.20;99.90;;;;;;20637965;28;20118;-43
2023/02/02 05:19:31;;;;;;;5.30;1.40;;;8.30;99.90;;;;;;20639258;28;20583;-44
2023/02/02 05:29:32;;;;;;;6.60;2.58;;;8.30;99.90;;;;;;20641434;28;20042;-43
2023/02/02 05:39:33;;;;;;;4.10;1.17;;;8.20;99.90;;;;;;20635513;28;20125;-43
2023/02/02 05:49:34;;;;;;;5.68;1.30;;;8.30;99.90;;;;;;20635395;28;20053;-43
2023/02/02 05:59:35;;;;;;;2.75;0.80;;;8.20;99.90;;;;;;20631438;28;20046;-43
2023/02/02 06:09:36;;;;;;;6.57;2.13;;;8.40;99.90;;;;;;20634833;28;20069;-43
2023/02/02 06:19:37;;;;;;;2.28;0.75;;;8.30;99.90;;;;;;20635041;28;20038;-44
2023/02/02 06:29:38;;;;;;;4.90;0.90;;;8.20;99.90;;;;;;20640264;28;20121;-43
2023/02/02 06:39:39;;;;;;;5.93;2.00;;;8.20;99.90;;;;;;20633896;28;20049;-43
2023/02/02 06:49:40;;;;;;;9.00;3.17;;;8.10;99.90;;;;;;20611132;28;20031;-43
2023/02/02 06:59:41;;;;;;;7.63;2.30;;;8.20;99.90;;;;;;20625893;28;20122;-43
2023/02/02 07:09:42;;;;;;;7.93;2.38;;;8.10;99.90;;;;;;20619568;28;22040;-43
2023/02/02 07:19:43;;;;;;;5.82;2.03;;;8.00;99.90;;;;;;20632625;28;20049;-43
2023/02/02 07:29:44;;;;;;;7.78;2.17;;;7.90;99.90;;;;;;20650152;28;20661;-43
2023/02/02 07:39:45;;;;;;;6.20;2.38;;;7.90;99.90;;;;;;20645340;28;20189;-43
2023/02/02 07:49:46;;;;;;;3.60;1.15;;;7.90;99.90;;;;;;20629781;28;20541;-43
2023/02/02 07:59:49;;;;;;;5.20;1.65;;;8.10;99.90;;;;;;20625509;28;20470;-43
2023/02/02 08:09:50;;;;;;;10.57;2.17;;;8.00;99.90;;;;;;20639131;28;20130;-43
2023/02/02 08:19:51;;;;;;;3.58;1.20;;;8.20;99.90;;;;;;20623336;28;20120;-43
2023/02/02 08:29:52;;;;;;;3.38;1.45;;;8.10;99.90;;;;;;20627173;28;20085;-43
2023/02/02 08:39:53;;;;;;;7.28;1.38;;;8.10;99.90;;;;;;20619587;28;20137;-43
2023/02/02 08:49:54;;;;;;;3.25;1.45;;;8.20;99.90;;;;;;20632538;28;20057;-43
2023/02/02 08:59:55;;;;;;;4.68;1.55;;;8.30;99.90;;;;;;20623843;28;20157;-43
2023/02/02 09:09:57;;;;;;;2.33;1.10;;;8.40;99.90;;;;;;20633516;28;20040;-43
2023/02/02 09:19:58;;;;;;;8.23;1.80;;;8.60;99.90;;;;;;20615778;28;20128;-43
2023/02/02 09:29:59;;;;;;;6.55;1.55;;;8.50;99.90;;;;;;20637389;28;20127;-43
2023/02/02 09:40:00;;;;;;;14.15;1.70;;;8.60;99.90;;;;;;20630000;28;20451;-43
2023/02/02 09:50:09;;;;;;;3.58;1.10;;;8.60;99.90;;;;;;20627815;28;20518;-43
2023/02/02 10:00:47;;;;;;;11.07;1.63;;;8.70;99.90;;;;;;20623609;28;20137;-44
2023/02/02 10:10:50;;;;;;;5.78;1.40;;;8.70;99.90;;;;;;20622914;28;20754;-43
2023/02/02 10:21:26;;;;;;;2.35;0.70;;;8.70;99.90;;;;;;20628003;28;20478;-44
2023/02/02 10:31:39;;;;;;;6.90;2.42;;;8.60;99.90;;;;;;20624111;28;20053;-43
2023/02/02 10:41:51;;;;;;;5.45;2.13;;;8.60;99.90;;;;;;20614354;28;21041;-43
2023/02/02 10:52:14;;;;;;;3.30;1.52;;;8.90;99.90;;;;;;20615177;28;20492;-43
2023/02/02 11:02:15;;;;;;;1.83;0.70;;;8.90;99.90;;;;;;20602726;28;20601;-43
2023/02/02 11:12:29;;;;;;;4.18;0.95;;;9.10;99.90;;;;;;20624279;28;20496;-44
2023/02/02 11:22:34;;;;;;;2.80;1.00;;;9.10;99.90;;;;;;20637532;28;20133;-44
2023/02/02 11:32:36;;;;;;;2.63;1.48;;;9.10;99.90;;;;;;20633759;28;20113;-44
2023/02/02 11:42:45;;;;;;;4.47;1.17;;;9.10;99.90;;;;;;20629900;28;20532;-44
2023/02/02 11:52:46;;;;;;;2.30;1.20;;;9.10;99.90;;;;;;20620054;28;20815;-43
2023/02/02 12:02:48;;;;;;;4.75;0.95;;;9.00;99.90;;;;;;20622748;28;20536;-43
2023/02/02 12:13:10;;;;;;;11.35;1.73;;;9.00;99.90;;;;;;20632937;28;20068;-44
2023/02/02 12:23:29;;;;;;;3.70;1.45;;;9.10;99.90;;;;;;20634404;28;20275;-44
2023/02/02 12:33:45;;;;;;;3.72;1.05;;;9.10;99.90;;;;;;20627200;28;20160;-44
2023/02/02 12:44:25;;;;;;;2.17;0.70;;;9.10;99.90;;;;;;20625741;28;20619;-43
2023/02/02 12:54:56;;;;;;;4.25;1.52;;;9.20;99.90;;;;;;20628971;28;20172;-44
2023/02/02 13:05:24;;;;;;;5.40;1.00;;;8.90;99.90;;;;;;20626807;28;20698;-43
2023/02/02 13:15:34;;;;;;;5.85;1.77;;;8.90;99.90;;;;;;20633005;28;20572;-43
2023/02/02 13:25:47;;;;;;;3.47;0.98;;;8.80;99.90;;;;;;20628297;28;20179;-43
2023/02/02 13:35:56;;;;;;;3.45;0.60;;;8.60;99.90;;;;;;20625679;28;20332;-43
2023/02/02 13:46:30;;;;;;;1.70;0.60;;;8.40;99.90;;;;;;20616423;28;20171;-42
2023/02/02 13:56:38;;;;;;;1.20;0.35;;;8.40;99.90;;;;;;20617847;28;20682;-42
2023/02/02 14:07:00;;;;;;;1.30;0.77;;;8.40;99.90;;;;;;20617625;28;20943;-42
2023/02/02 14:17:12;;;;;;;2.42;1.05;;;8.30;99.90;;;;;;20618901;28;20928;-42
2023/02/02 14:27:16;;;;;;;3.17;1.30;;;8.30;99.90;;;;;;20620011;28;20095;-42
2023/02/02 14:37:24;;;;;;;3.80;1.83;;;8.20;99.90;;;;;;20618364;28;20168;-42
2023/02/02 14:47:43;;;;;;;2.40;0.97;;;8.20;99.90;;;;;;20620946;28;21578;-43
2023/02/02 14:57:53;;;;;;;15.75;1.55;;;8.10;99.90;;;;;;20617926;28;21994;-42
2023/02/02 15:08:14;;;;;;;3.08;1.20;;;8.20;99.90;;;;;;20615507;28;20088;-43
2023/02/02 15:18:25;;;;;;;5.53;2.33;;;8.20;99.90;;;;;;20609750;28;20635;-43
2023/02/02 15:28:47;;;;;;;5.78;2.22;;;8.20;99.90;;;;;;20621060;28;20125;-43
2023/02/02 15:38:56;;;;;;;2.88;1.67;;;8.20;99.90;;;;;;20610587;28;20345;-42
2023/02/02 15:49:20;;;;;;;12.82;6.18;;;8.30;99.90;;;;;;20629549;28;20044;-43
2023/02/02 15:59:24;;;;;;;10.73;4.00;;;8.20;99.90;;;;;;20633260;28;20104;-43
2023/02/02 16:09:29;;;;;;;4.78;2.47;;;8.20;99.90;;;;;;20627260;28;20176;-43
2023/02/02 16:19:31;;;;;;;12.27;5.25;;;8.20;99.90;;;;;;20634192;28;20201;-43
2023/02/02 16:29:33;;;;;;;9.68;4.13;;;8.30;99.90;;;;;;20616494;28;20132;-43
2023/02/02 16:39:34;;;;;;;11.10;2.72;;;8.30;99.90;;;;;;20614150;28;20158;-43
2023/02/02 16:49:36;;;;;;;7.60;3.65;;;8.40;99.90;;;;;;20621089;28;20062;-43
2023/02/02 16:59:37;;;;;;;4.88;2.33;;;8.40;99.90;;;;;;20617754;28;20704;-43
2023/02/02 17:09:40;;;;;;;10.30;4.07;;;8.40;99.90;;;;;;20625967;28;20089;-43
2023/02/02 17:19:41;;;;;;;9.40;3.30;;;8.40;99.90;;;;;;20641194;28;20271;-43
2023/02/02 17:29:44;;;;;;;10.18;3.28;;;8.40;99.90;;;;;;20624825;28;20049;-43
2023/02/02 17:39:45;;;;;;;3.35;2.13;;;8.40;99.90;;;;;;20608936;28;20128;-43
2023/02/02 17:49:46;;;;;;;45.58;18.83;;;8.40;99.90;;;;;;20631165;28;20084;-43
2023/02/02 17:59:47;;;;;;;24.73;9.82;;;8.40;99.90;;;;;;20635719;28;20077;-43
2023/02/02 18:09:48;;;;;;;3.33;1.73;;;8.50;99.90;;;;;;20626465;28;20034;-43
2023/02/02 18:19:50;;;;;;;7.93;3.03;;;8.70;99.90;;;;;;20624452;28;20049;-43
2023/02/02 18:29:51;;;;;;;16.60;3.58;;;8.70;99.90;;;;;;20631115;28;20450;-44
2023/02/02 18:39:52;;;;;;;6.72;3.03;;;8.80;99.90;;;;;;20634200;28;20383;-43
2023/02/02 18:49:53;;;;;;;6.30;2.97;;;8.80;99.90;;;;;;20635402;28;20183;-44
2023/02/02 18:59:55;;;;;;;17.00;7.35;;;8.80;99.90;;;;;;20633554;28;20670;-44
2023/02/02 19:09:56;;;;;;;5.25;2.78;;;8.80;99.90;;;;;;20614457;28;20105;-43
2023/02/02 19:20:01;;;;;;;3.30;1.75;;;8.90;99.90;;;;;;20599926;28;20046;-43
2023/02/02 19:30:15;;;;;;;6.75;1.67;;;8.70;99.90;;;;;;20603554;28;20042;-43
2023/02/02 19:40:21;;;;;;;3.33;1.40;;;8.60;99.90;;;;;;20615804;28;20045;-43
2023/02/02 19:50:25;;;;;;;2.92;1.63;;;8.50;99.90;;;;;;20620902;28;20088;-43
2023/02/02 20:00:28;;;;;;;9.13;3.35;;;8.70;99.90;;;;;;20616598;28;20453;-44
2023/02/02 20:10:44;;;;;;;24.92;4.85;;;8.80;99.90;;;;;;20627000;28;20129;-43
2023/02/02 20:20:50;;;;;;;4.25;2.38;;;8.90;99.90;;;;;;20622331;28;20145;-44
2023/02/02 20:30:51;;;;;;;5.43;2.30;;;9.10;99.90;;;;;;20608628;28;20115;-44
2023/02/02 20:40:52;;;;;;;17.88;4.55;;;9.10;99.90;;;;;;20612796;28;20133;-43
2023/02/02 20:50:53;;;;;;;6.07;1.77;;;9.10;99.90;;;;;;20618329;28;20230;-44
2023/02/02 21:00:54;;;;;;;4.47;1.85;;;9.00;99.90;;;;;;20629172;28;20100;-44
2023/02/02 21:10:55;;;;;;;1.88;1.15;;;9.10;99.90;;;;;;20623646;28;20077;-44
2023/02/02 21:20:56;;;;;;;3.10;1.70;;;9.30;99.90;;;;;;20622661;28;20050;-44
2023/02/02 21:30:57;;;;;;;3.13;0.88;;;9.20;99.90;;;;;;20624527;28;20049;-44
2023/02/02 21:40:58;;;;;;;3.13;1.63;;;9.30;99.90;;;;;;20630235;28;20050;-44
2023/02/02 21:51:21;;;;;;;2.30;1.20;;;9.30;99.90;;;;;;20625290;28;20142;-44
2023/02/02 22:01:34;;;;;;;3.33;1.00;;;9.20;99.90;;;;;;20620539;28;20474;-44
2023/02/02 22:11:54;;;;;;;2.88;1.50;;;9.30;99.90;;;;;;20613031;28;20184;-44
2023/02/02 22:22:07;;;;;;;4.93;2.08;;;9.30;99.90;;;;;;20624170;28;20938;-44
2023/02/02 22:32:08;;;;;;;2.35;0.85;;;9.40;99.90;;;;;;20611754;28;20046;-44
2023/02/02 22:42:09;;;;;;;4.78;1.88;;;9.40;99.90;;;;;;20615470;28;20049;-44
2023/02/02 22:52:10;;;;;;;3.05;0.77;;;9.40;99.90;;;;;;20622925;28;20061;-44
2023/02/02 23:02:11;;;;;;;4.07;1.70;;;9.40;99.90;;;;;;20610099;28;20139;-44
2023/02/02 23:12:12;;;;;;;3.60;1.35;;;9.30;99.90;;;;;;20605438;28;20049;-44
2023/02/02 23:22:13;;;;;;;2.80;1.38;;;9.30;99.90;;;;;;20614535;28;20042;-44
2023/02/02 23:32:14;;;;;;;5.18;2.10;;;9.30;99.90;;;;;;20619107;28;20501;-44
2023/02/02 23:42:15;;;;;;;13.45;2.35;;;9.30;99.90;;;;;;20621297;28;20132;-44
2023/02/02 23:52:17;;;;;;;3.40;0.93;;;9.40;99.90;;;;;;20621630;28;20436;-44
